sensor_id;sensor_type;location;lat;lon;timestamp;P1;durP1;ratioP1;P2;durP2;ratioP2
49412;SDS011;35493;50.276;9.372;2023-03-08T00:01:01;6.28;;;3.97;;
49412;SDS011;35493;50.276;9.372;2023-03-08T00:03:34;7.20;;;4.13;;
49412;SDS011;35493;50.276;9.372;2023-03-08T00:06:09;7.45;;;4.00;;
49412;SDS011;35493;50.276;9.372;2023-03-08T00:08:43;6.18;;;3.95;;
49412;SDS011;35493;50.276;9.372;2023-03-08T00:11:20;7.50;;;4.72;;
49412;SDS011;35493;50.276;9.372;2023-03-08T00:13:53;9.27;;;6.70;;
49412;SDS011;35493;50.276;9.372;2023-03-08T00:16:27;10.35;;;6.45;;
49412;SDS011;35493;50.276;9.372;2023-03-08T00:19:00;7.72;;;4.80;;
49412;SDS011;35493;50.276;9.372;2023-03-08T00:21:33;6.40;;;4.20;;
49412;SDS011;35493;50.276;9.372;2023-03-08T00:24:07;6.15;;;3.50;;
49412;SDS011;35493;50.276;9.372;2023-03-08T00:26:42;7.22;;;3.65;;
49412;SDS011;35493;50.276;9.372;2023-03-08T00:29:16;5.50;;;3.28;;
49412;SDS011;35493;50.276;9.372;2023-03-08T00:31:49;7.18;;;3.60;;
49412;SDS011;35493;50.276;9.372;2023-03-08T00:34:23;5.93;;;3.40;;
49412;SDS011;35493;50.276;9.372;2023-03-08T00:36:49;5.90;;;3.33;;
49412;SDS011;35493;50.276;9.372;2023-03-08T00:39:22;6.53;;;4.15;;
49412;SDS011;35493;50.276;9.372;2023-03-08T00:41:58;6.63;;;3.42;;
49412;SDS011;35493;50.276;9.372;2023-03-08T00:44:32;6.75;;;3.40;;
49412;SDS011;35493;50.276;9.372;2023-03-08T00:47:04;5.13;;;3.08;;
49412;SDS011;35493;50.276;9.372;2023-03-08T00:49:38;6.43;;;3.75;;
49412;SDS011;35493;50.276;9.372;2023-03-08T00:52:12;6.68;;;3.95;;
49412;SDS011;35493;50.276;9.372;2023-03-08T00:54:47;8.30;;;5.55;;
49412;SDS011;35493;50.276;9.372;2023-03-08T00:57:15;10.23;;;7.45;;
49412;SDS011;35493;50.276;9.372;2023-03-08T00:59:48;12.27;;;9.25;;
49412;SDS011;35493;50.276;9.372;2023-03-08T01:02:22;12.70;;;10.07;;
49412;SDS011;35493;50.276;9.372;2023-03-08T01:04:55;11.18;;;7.95;;
49412;SDS011;35493;50.276;9.372;2023-03-08T01:07:29;7.47;;;5.78;;
49412;SDS011;35493;50.276;9.372;2023-03-08T01:10:03;7.63;;;5.43;;
49412;SDS011;35493;50.276;9.372;2023-03-08T01:12:38;8.50;;;4.18;;
49412;SDS011;35493;50.276;9.372;2023-03-08T01:15:12;6.95;;;4.18;;
49412;SDS011;35493;50.276;9.372;2023-03-08T01:17:45;6.55;;;3.95;;
49412;SDS011;35493;50.276;9.372;2023-03-08T01:20:22;7.03;;;3.60;;
49412;SDS011;35493;50.276;9.372;2023-03-08T01:22:56;6.85;;;3.67;;
49412;SDS011;35493;50.276;9.372;2023-03-08T01:25:28;7.30;;;3.53;;
49412;SDS011;35493;50.276;9.372;2023-03-08T01:28:04;7.38;;;3.90;;
49412;SDS011;35493;50.276;9.372;2023-03-08T01:30:38;7.65;;;4.10;;
49412;SDS011;35493;50.276;9.372;2023-03-08T01:33:11;7.35;;;3.75;;
49412;SDS011;35493;50.276;9.372;2023-03-08T01:35:39;6.55;;;3.90;;
49412;SDS011;35493;50.276;9.372;2023-03-08T01:38:13;8.13;;;4.15;;
49412;SDS011;35493;50.276;9.372;2023-03-08T01:40:54;6.75;;;3.85;;
49412;SDS011;35493;50.276;9.372;2023-03-08T01:43:29;9.32;;;5.15;;
49412;SDS011;35493;50.276;9.372;2023-03-08T01:46:17;10.27;;;6.70;;
49412;SDS011;35493;50.276;9.372;2023-03-08T01:49:17;11.57;;;7.82;;
49412;SDS011;35493;50.276;9.372;2023-03-08T01:51:54;10.13;;;7.00;;
49412;SDS011;35493;50.276;9.372;2023-03-08T01:54:35;9.45;;;5.45;;
49412;SDS011;35493;50.276;9.372;2023-03-08T01:57:12;7.35;;;4.15;;
49412;SDS011;35493;50.276;9.372;2023-03-08T01:59:51;8.02;;;4.20;;
49412;SDS011;35493;50.276;9.372;2023-03-08T02:02:39;7.07;;;3.90;;
49412;SDS011;35493;50.276;9.372;2023-03-08T02:05:15;10.15;;;6.20;;
49412;SDS011;35493;50.276;9.372;2023-03-08T02:07:54;12.50;;;9.15;;
49412;SDS011;35493;50.276;9.372;2023-03-08T02:10:31;14.65;;;10.80;;
49412;SDS011;35493;50.276;9.372;2023-03-08T02:13:07;13.25;;;8.45;;
49412;SDS011;35493;50.276;9.372;2023-03-08T02:15:44;10.07;;;6.50;;
49412;SDS011;35493;50.276;9.372;2023-03-08T02:18:19;8.90;;;5.18;;
49412;SDS011;35493;50.276;9.372;2023-03-08T02:20:53;11.30;;;5.85;;
49412;SDS011;35493;50.276;9.372;2023-03-08T02:23:28;8.23;;;5.03;;
49412;SDS011;35493;50.276;9.372;2023-03-08T02:26:03;8.30;;;4.90;;
49412;SDS011;35493;50.276;9.372;2023-03-08T02:28:37;8.07;;;4.35;;
49412;SDS011;35493;50.276;9.372;2023-03-08T02:31:11;8.55;;;4.65;;
49412;SDS011;35493;50.276;9.372;2023-03-08T02:33:47;9.55;;;4.32;;
49412;SDS011;35493;50.276;9.372;2023-03-08T02:36:19;8.10;;;4.53;;
49412;SDS011;35493;50.276;9.372;2023-03-08T02:39:02;8.82;;;4.15;;
49412;SDS011;35493;50.276;9.372;2023-03-08T02:41:36;8.95;;;4.28;;
49412;SDS011;35493;50.276;9.372;2023-03-08T02:44:12;8.23;;;3.83;;
49412;SDS011;35493;50.276;9.372;2023-03-08T02:46:45;8.23;;;4.10;;
49412;SDS011;35493;50.276;9.372;2023-03-08T02:49:19;8.18;;;4.35;;
49412;SDS011;35493;50.276;9.372;2023-03-08T02:51:52;8.13;;;3.78;;
49412;SDS011;35493;50.276;9.372;2023-03-08T02:54:27;7.72;;;3.72;;
49412;SDS011;35493;50.276;9.372;2023-03-08T02:57:01;8.23;;;4.00;;
49412;SDS011;35493;50.276;9.372;2023-03-08T02:59:35;11.18;;;5.70;;
49412;SDS011;35493;50.276;9.372;2023-03-08T03:02:09;15.55;;;9.27;;
49412;SDS011;35493;50.276;9.372;2023-03-08T03:04:43;19.42;;;10.95;;
49412;SDS011;35493;50.276;9.372;2023-03-08T03:07:17;18.25;;;11.60;;
49412;SDS011;35493;50.276;9.372;2023-03-08T03:09:52;17.58;;;10.45;;
49412;SDS011;35493;50.276;9.372;2023-03-08T03:12:26;14.52;;;8.30;;
49412;SDS011;35493;50.276;9.372;2023-03-08T03:14:59;12.73;;;6.40;;
49412;SDS011;35493;50.276;9.372;2023-03-08T03:17:33;10.80;;;5.50;;
49412;SDS011;35493;50.276;9.372;2023-03-08T03:20:07;8.23;;;4.50;;
49412;SDS011;35493;50.276;9.372;2023-03-08T03:22:41;11.70;;;5.85;;
49412;SDS011;35493;50.276;9.372;2023-03-08T03:25:18;10.73;;;5.93;;
49412;SDS011;35493;50.276;9.372;2023-03-08T03:27:52;11.13;;;5.45;;
49412;SDS011;35493;50.276;9.372;2023-03-08T03:30:27;10.32;;;4.78;;
49412;SDS011;35493;50.276;9.372;2023-03-08T03:33:01;11.13;;;5.28;;
49412;SDS011;35493;50.276;9.372;2023-03-08T03:35:36;10.20;;;5.38;;
49412;SDS011;35493;50.276;9.372;2023-03-08T03:38:10;11.52;;;5.57;;
49412;SDS011;35493;50.276;9.372;2023-03-08T03:40:52;12.25;;;5.97;;
49412;SDS011;35493;50.276;9.372;2023-03-08T03:43:32;10.18;;;5.18;;
49412;SDS011;35493;50.276;9.372;2023-03-08T03:46:09;9.27;;;5.10;;
49412;SDS011;35493;50.276;9.372;2023-03-08T03:48:48;10.70;;;5.53;;
49412;SDS011;35493;50.276;9.372;2023-03-08T03:51:24;10.45;;;5.38;;
49412;SDS011;35493;50.276;9.372;2023-03-08T03:54:07;9.88;;;5.28;;
49412;SDS011;35493;50.276;9.372;2023-03-08T03:56:44;10.43;;;5.22;;
49412;SDS011;35493;50.276;9.372;2023-03-08T03:59:20;10.30;;;5.13;;
49412;SDS011;35493;50.276;9.372;2023-03-08T04:01:47;9.73;;;4.80;;
49412;SDS011;35493;50.276;9.372;2023-03-08T04:04:28;10.27;;;5.00;;
49412;SDS011;35493;50.276;9.372;2023-03-08T04:07:03;10.88;;;5.90;;
49412;SDS011;35493;50.276;9.372;2023-03-08T04:09:40;10.38;;;5.63;;
49412;SDS011;35493;50.276;9.372;2023-03-08T04:12:17;11.00;;;5.75;;
49412;SDS011;35493;50.276;9.372;2023-03-08T04:14:57;10.82;;;5.82;;
49412;SDS011;35493;50.276;9.372;2023-03-08T04:17:31;14.35;;;6.30;;
49412;SDS011;35493;50.276;9.372;2023-03-08T04:20:05;12.45;;;5.70;;
49412;SDS011;35493;50.276;9.372;2023-03-08T04:22:45;12.40;;;6.10;;
49412;SDS011;35493;50.276;9.372;2023-03-08T04:25:25;14.07;;;7.00;;
49412;SDS011;35493;50.276;9.372;2023-03-08T04:28:01;15.05;;;7.05;;
49412;SDS011;35493;50.276;9.372;2023-03-08T04:30:35;15.68;;;7.38;;
49412;SDS011;35493;50.276;9.372;2023-03-08T04:33:09;16.85;;;7.90;;
49412;SDS011;35493;50.276;9.372;2023-03-08T04:35:46;16.35;;;6.93;;
49412;SDS011;35493;50.276;9.372;2023-03-08T04:38:29;17.58;;;7.25;;
49412;SDS011;35493;50.276;9.372;2023-03-08T04:41:05;15.68;;;7.45;;
49412;SDS011;35493;50.276;9.372;2023-03-08T04:43:53;15.00;;;7.07;;
49412;SDS011;35493;50.276;9.372;2023-03-08T04:46:37;18.42;;;7.28;;
49412;SDS011;35493;50.276;9.372;2023-03-08T04:49:16;12.23;;;6.10;;
49412;SDS011;35493;50.276;9.372;2023-03-08T04:51:54;12.50;;;5.93;;
49412;SDS011;35493;50.276;9.372;2023-03-08T04:54:28;11.82;;;6.25;;
49412;SDS011;35493;50.276;9.372;2023-03-08T04:57:07;13.38;;;6.25;;
49412;SDS011;35493;50.276;9.372;2023-03-08T04:59:43;11.40;;;5.40;;
49412;SDS011;35493;50.276;9.372;2023-03-08T05:02:11;12.55;;;5.50;;
49412;SDS011;35493;50.276;9.372;2023-03-08T05:04:45;13.45;;;5.38;;
49412;SDS011;35493;50.276;9.372;2023-03-08T05:07:19;13.35;;;6.50;;
49412;SDS011;35493;50.276;9.372;2023-03-08T05:09:54;13.63;;;6.40;;
49412;SDS011;35493;50.276;9.372;2023-03-08T05:12:28;10.70;;;6.10;;
49412;SDS011;35493;50.276;9.372;2023-03-08T05:15:04;14.35;;;6.35;;
49412;SDS011;35493;50.276;9.372;2023-03-08T05:17:39;14.77;;;6.38;;
49412;SDS011;35493;50.276;9.372;2023-03-08T05:20:12;14.80;;;6.20;;
49412;SDS011;35493;50.276;9.372;2023-03-08T05:22:46;14.98;;;6.65;;
49412;SDS011;35493;50.276;9.372;2023-03-08T05:25:20;14.25;;;6.72;;
49412;SDS011;35493;50.276;9.372;2023-03-08T05:27:54;13.45;;;6.40;;
49412;SDS011;35493;50.276;9.372;2023-03-08T05:30:28;12.13;;;6.32;;
49412;SDS011;35493;50.276;9.372;2023-03-08T05:33:02;12.43;;;5.32;;
49412;SDS011;35493;50.276;9.372;2023-03-08T05:35:36;9.77;;;4.65;;
49412;SDS011;35493;50.276;9.372;2023-03-08T05:38:10;9.95;;;4.78;;
49412;SDS011;35493;50.276;9.372;2023-03-08T05:43:24;8.85;;;3.60;;
49412;SDS011;35493;50.276;9.372;2023-03-08T05:46:06;7.53;;;3.40;;
49412;SDS011;35493;50.276;9.372;2023-03-08T05:48:42;7.90;;;3.92;;
49412;SDS011;35493;50.276;9.372;2023-03-08T05:51:17;8.20;;;4.15;;
49412;SDS011;35493;50.276;9.372;2023-03-08T05:53:52;8.88;;;4.07;;
49412;SDS011;35493;50.276;9.372;2023-03-08T05:56:26;8.43;;;3.65;;
49412;SDS011;35493;50.276;9.372;2023-03-08T05:59:06;9.70;;;4.07;;
49412;SDS011;35493;50.276;9.372;2023-03-08T06:01:41;7.22;;;3.55;;
49412;SDS011;35493;50.276;9.372;2023-03-08T06:04:22;11.57;;;4.18;;
49412;SDS011;35493;50.276;9.372;2023-03-08T06:06:57;8.63;;;4.38;;
49412;SDS011;35493;50.276;9.372;2023-03-08T06:09:40;8.73;;;4.47;;
49412;SDS011;35493;50.276;9.372;2023-03-08T06:12:16;9.95;;;4.80;;
49412;SDS011;35493;50.276;9.372;2023-03-08T06:14:53;11.55;;;4.90;;
49412;SDS011;35493;50.276;9.372;2023-03-08T06:17:32;10.95;;;5.28;;
49412;SDS011;35493;50.276;9.372;2023-03-08T06:20:07;9.57;;;4.75;;
49412;SDS011;35493;50.276;9.372;2023-03-08T06:22:44;11.65;;;5.13;;
49412;SDS011;35493;50.276;9.372;2023-03-08T06:25:18;11.18;;;5.13;;
49412;SDS011;35493;50.276;9.372;2023-03-08T06:27:52;12.05;;;6.30;;
49412;SDS011;35493;50.276;9.372;2023-03-08T06:30:32;13.98;;;6.13;;
49412;SDS011;35493;50.276;9.372;2023-03-08T06:33:07;11.75;;;5.82;;
49412;SDS011;35493;50.276;9.372;2023-03-08T06:35:42;13.43;;;6.75;;
49412;SDS011;35493;50.276;9.372;2023-03-08T06:38:16;12.57;;;6.30;;
49412;SDS011;35493;50.276;9.372;2023-03-08T06:40:56;12.32;;;6.68;;
49412;SDS011;35493;50.276;9.372;2023-03-08T06:43:30;16.38;;;7.03;;
49412;SDS011;35493;50.276;9.372;2023-03-08T06:46:04;12.55;;;6.68;;
49412;SDS011;35493;50.276;9.372;2023-03-08T06:48:39;14.07;;;7.05;;
49412;SDS011;35493;50.276;9.372;2023-03-08T06:51:14;14.32;;;7.43;;
49412;SDS011;35493;50.276;9.372;2023-03-08T06:53:43;13.73;;;7.22;;
49412;SDS011;35493;50.276;9.372;2023-03-08T06:56:20;14.70;;;7.15;;
49412;SDS011;35493;50.276;9.372;2023-03-08T06:58:55;14.52;;;7.78;;
49412;SDS011;35493;50.276;9.372;2023-03-08T07:01:28;16.02;;;8.00;;
49412;SDS011;35493;50.276;9.372;2023-03-08T07:04:02;14.43;;;7.88;;
49412;SDS011;35493;50.276;9.372;2023-03-08T07:06:36;15.70;;;7.95;;
49412;SDS011;35493;50.276;9.372;2023-03-08T07:09:09;16.10;;;7.05;;
49412;SDS011;35493;50.276;9.372;2023-03-08T07:11:44;16.88;;;8.18;;
49412;SDS011;35493;50.276;9.372;2023-03-08T07:14:17;15.23;;;7.90;;
49412;SDS011;35493;50.276;9.372;2023-03-08T07:16:51;19.77;;;8.20;;
49412;SDS011;35493;50.276;9.372;2023-03-08T07:19:25;16.85;;;8.40;;
49412;SDS011;35493;50.276;9.372;2023-03-08T07:21:59;18.52;;;8.43;;
49412;SDS011;35493;50.276;9.372;2023-03-08T07:24:32;21.80;;;12.15;;
49412;SDS011;35493;50.276;9.372;2023-03-08T07:27:05;23.05;;;12.00;;
49412;SDS011;35493;50.276;9.372;2023-03-08T07:29:39;22.05;;;11.80;;
49412;SDS011;35493;50.276;9.372;2023-03-08T07:32:12;24.35;;;12.52;;
49412;SDS011;35493;50.276;9.372;2023-03-08T07:34:47;20.65;;;11.70;;
49412;SDS011;35493;50.276;9.372;2023-03-08T07:37:21;21.73;;;11.18;;
49412;SDS011;35493;50.276;9.372;2023-03-08T07:39:55;18.55;;;10.40;;
49412;SDS011;35493;50.276;9.372;2023-03-08T07:42:28;20.65;;;9.95;;
49412;SDS011;35493;50.276;9.372;2023-03-08T07:45:11;20.92;;;9.48;;
49412;SDS011;35493;50.276;9.372;2023-03-08T07:47:45;14.90;;;8.45;;
49412;SDS011;35493;50.276;9.372;2023-03-08T07:50:22;18.63;;;9.20;;
49412;SDS011;35493;50.276;9.372;2023-03-08T07:52:57;17.50;;;8.88;;
49412;SDS011;35493;50.276;9.372;2023-03-08T07:55:31;16.92;;;8.52;;
49412;SDS011;35493;50.276;9.372;2023-03-08T07:58:05;18.95;;;9.25;;
49412;SDS011;35493;50.276;9.372;2023-03-08T08:00:38;17.02;;;8.38;;
49412;SDS011;35493;50.276;9.372;2023-03-08T08:03:12;22.52;;;8.90;;
49412;SDS011;35493;50.276;9.372;2023-03-08T08:05:47;16.45;;;9.10;;
49412;SDS011;35493;50.276;9.372;2023-03-08T08:08:21;16.25;;;8.52;;
49412;SDS011;35493;50.276;9.372;2023-03-08T08:10:54;14.65;;;8.25;;
49412;SDS011;35493;50.276;9.372;2023-03-08T08:13:27;13.88;;;8.38;;
49412;SDS011;35493;50.276;9.372;2023-03-08T08:16:01;16.95;;;9.10;;
49412;SDS011;35493;50.276;9.372;2023-03-08T08:18:35;17.30;;;8.73;;
49412;SDS011;35493;50.276;9.372;2023-03-08T08:21:10;15.45;;;9.32;;
49412;SDS011;35493;50.276;9.372;2023-03-08T08:23:45;18.60;;;8.82;;
49412;SDS011;35493;50.276;9.372;2023-03-08T08:26:19;16.95;;;8.20;;
49412;SDS011;35493;50.276;9.372;2023-03-08T08:28:53;15.32;;;8.02;;
49412;SDS011;35493;50.276;9.372;2023-03-08T08:31:27;16.38;;;8.70;;
49412;SDS011;35493;50.276;9.372;2023-03-08T08:34:02;14.13;;;7.43;;
49412;SDS011;35493;50.276;9.372;2023-03-08T08:36:36;17.75;;;7.85;;
49412;SDS011;35493;50.276;9.372;2023-03-08T08:39:17;13.77;;;7.53;;
49412;SDS011;35493;50.276;9.372;2023-03-08T08:41:51;16.45;;;8.23;;
49412;SDS011;35493;50.276;9.372;2023-03-08T08:44:24;15.77;;;8.55;;
49412;SDS011;35493;50.276;9.372;2023-03-08T08:46:57;13.73;;;7.43;;
49412;SDS011;35493;50.276;9.372;2023-03-08T08:49:30;18.05;;;8.85;;
49412;SDS011;35493;50.276;9.372;2023-03-08T08:52:04;15.10;;;8.10;;
49412;SDS011;35493;50.276;9.372;2023-03-08T08:54:38;15.55;;;7.93;;
49412;SDS011;35493;50.276;9.372;2023-03-08T08:57:05;16.20;;;7.95;;
49412;SDS011;35493;50.276;9.372;2023-03-08T08:59:39;16.50;;;7.82;;
49412;SDS011;35493;50.276;9.372;2023-03-08T09:02:13;15.98;;;8.40;;
49412;SDS011;35493;50.276;9.372;2023-03-08T09:04:46;15.23;;;8.10;;
49412;SDS011;35493;50.276;9.372;2023-03-08T09:07:20;16.92;;;9.30;;
49412;SDS011;35493;50.276;9.372;2023-03-08T09:09:54;16.88;;;8.55;;
49412;SDS011;35493;50.276;9.372;2023-03-08T09:12:27;14.38;;;8.07;;
49412;SDS011;35493;50.276;9.372;2023-03-08T09:15:01;13.75;;;7.55;;
49412;SDS011;35493;50.276;9.372;2023-03-08T09:17:35;16.08;;;8.23;;
49412;SDS011;35493;50.276;9.372;2023-03-08T09:20:09;12.38;;;7.50;;
49412;SDS011;35493;50.276;9.372;2023-03-08T09:22:45;15.45;;;8.65;;
49412;SDS011;35493;50.276;9.372;2023-03-08T09:25:19;15.20;;;8.73;;
49412;SDS011;35493;50.276;9.372;2023-03-08T09:27:55;15.93;;;8.52;;
49412;SDS011;35493;50.276;9.372;2023-03-08T09:30:28;14.38;;;7.97;;
49412;SDS011;35493;50.276;9.372;2023-03-08T09:33:03;14.65;;;9.05;;
49412;SDS011;35493;50.276;9.372;2023-03-08T09:35:36;15.48;;;8.32;;
49412;SDS011;35493;50.276;9.372;2023-03-08T09:38:10;14.52;;;8.63;;
49412;SDS011;35493;50.276;9.372;2023-03-08T09:40:45;13.85;;;7.68;;
49412;SDS011;35493;50.276;9.372;2023-03-08T09:43:27;13.50;;;7.18;;
49412;SDS011;35493;50.276;9.372;2023-03-08T09:46:11;14.63;;;7.75;;
49412;SDS011;35493;50.276;9.372;2023-03-08T09:48:47;15.93;;;8.35;;
49412;SDS011;35493;50.276;9.372;2023-03-08T09:51:22;14.63;;;8.07;;
49412;SDS011;35493;50.276;9.372;2023-03-08T09:54:10;15.02;;;7.45;;
49412;SDS011;35493;50.276;9.372;2023-03-08T09:56:48;12.15;;;7.32;;
49412;SDS011;35493;50.276;9.372;2023-03-08T09:59:24;15.93;;;7.93;;
49412;SDS011;35493;50.276;9.372;2023-03-08T10:02:15;14.63;;;7.70;;
49412;SDS011;35493;50.276;9.372;2023-03-08T10:04:57;11.40;;;6.65;;
49412;SDS011;35493;50.276;9.372;2023-03-08T10:07:44;13.63;;;7.13;;
49412;SDS011;35493;50.276;9.372;2023-03-08T10:10:40;14.20;;;8.02;;
49412;SDS011;35493;50.276;9.372;2023-03-08T10:13:27;14.02;;;7.93;;
49412;SDS011;35493;50.276;9.372;2023-03-08T10:16:11;14.00;;;7.83;;
49412;SDS011;35493;50.276;9.372;2023-03-08T10:18:51;16.40;;;8.40;;
49412;SDS011;35493;50.276;9.372;2023-03-08T10:21:30;14.45;;;7.68;;
49412;SDS011;35493;50.276;9.372;2023-03-08T10:24:11;15.57;;;8.02;;
49412;SDS011;35493;50.276;9.372;2023-03-08T10:26:48;15.10;;;8.20;;
49412;SDS011;35493;50.276;9.372;2023-03-08T10:29:22;13.45;;;7.95;;
49412;SDS011;35493;50.276;9.372;2023-03-08T10:31:56;12.82;;;7.72;;
49412;SDS011;35493;50.276;9.372;2023-03-08T10:34:29;13.40;;;7.20;;
49412;SDS011;35493;50.276;9.372;2023-03-08T10:37:06;15.45;;;7.45;;
49412;SDS011;35493;50.276;9.372;2023-03-08T10:39:47;17.15;;;8.60;;
49412;SDS011;35493;50.276;9.372;2023-03-08T10:42:25;13.77;;;8.35;;
49412;SDS011;35493;50.276;9.372;2023-03-08T10:45:02;14.60;;;8.52;;
49412;SDS011;35493;50.276;9.372;2023-03-08T10:47:51;15.20;;;8.20;;
49412;SDS011;35493;50.276;9.372;2023-03-08T10:50:28;12.50;;;7.20;;
49412;SDS011;35493;50.276;9.372;2023-03-08T10:53:07;13.35;;;8.32;;
49412;SDS011;35493;50.276;9.372;2023-03-08T10:55:43;14.50;;;8.30;;
49412;SDS011;35493;50.276;9.372;2023-03-08T10:58:25;14.50;;;8.25;;
49412;SDS011;35493;50.276;9.372;2023-03-08T11:01:04;13.43;;;7.78;;
49412;SDS011;35493;50.276;9.372;2023-03-08T11:03:39;12.68;;;7.70;;
49412;SDS011;35493;50.276;9.372;2023-03-08T11:06:13;15.15;;;7.68;;
49412;SDS011;35493;50.276;9.372;2023-03-08T11:08:50;14.18;;;7.88;;
49412;SDS011;35493;50.276;9.372;2023-03-08T11:11:25;13.05;;;7.72;;
49412;SDS011;35493;50.276;9.372;2023-03-08T11:14:00;12.98;;;6.95;;
49412;SDS011;35493;50.276;9.372;2023-03-08T11:16:41;10.85;;;6.95;;
49412;SDS011;35493;50.276;9.372;2023-03-08T11:19:28;10.75;;;6.88;;
49412;SDS011;35493;50.276;9.372;2023-03-08T11:22:24;13.90;;;7.87;;
49412;SDS011;35493;50.276;9.372;2023-03-08T11:25:10;13.52;;;7.72;;
49412;SDS011;35493;50.276;9.372;2023-03-08T11:27:57;12.88;;;7.28;;
49412;SDS011;35493;50.276;9.372;2023-03-08T11:30:40;12.60;;;7.47;;
49412;SDS011;35493;50.276;9.372;2023-03-08T11:33:32;12.32;;;7.57;;
49412;SDS011;35493;50.276;9.372;2023-03-08T11:36:19;11.85;;;6.88;;
49412;SDS011;35493;50.276;9.372;2023-03-08T11:38:56;12.73;;;7.35;;
49412;SDS011;35493;50.276;9.372;2023-03-08T11:41:42;12.93;;;7.78;;
49412;SDS011;35493;50.276;9.372;2023-03-08T11:50:27;12.68;;;7.25;;
49412;SDS011;35493;50.276;9.372;2023-03-08T11:53:06;12.68;;;7.40;;
49412;SDS011;35493;50.276;9.372;2023-03-08T11:56:00;11.90;;;6.88;;
49412;SDS011;35493;50.276;9.372;2023-03-08T11:58:46;12.15;;;6.90;;
49412;SDS011;35493;50.276;9.372;2023-03-08T12:01:24;12.18;;;6.75;;
49412;SDS011;35493;50.276;9.372;2023-03-08T12:04:05;12.63;;;7.38;;
49412;SDS011;35493;50.276;9.372;2023-03-08T12:06:44;11.82;;;7.30;;
49412;SDS011;35493;50.276;9.372;2023-03-08T12:09:21;12.80;;;6.40;;
49412;SDS011;35493;50.276;9.372;2023-03-08T12:11:59;14.23;;;6.97;;
49412;SDS011;35493;50.276;9.372;2023-03-08T12:14:43;10.50;;;5.93;;
49412;SDS011;35493;50.276;9.372;2023-03-08T12:17:23;8.48;;;4.88;;
49412;SDS011;35493;50.276;9.372;2023-03-08T12:20:02;10.50;;;5.50;;
49412;SDS011;35493;50.276;9.372;2023-03-08T12:22:42;10.35;;;5.55;;
49412;SDS011;35493;50.276;9.372;2023-03-08T12:25:21;10.48;;;5.75;;
49412;SDS011;35493;50.276;9.372;2023-03-08T12:27:58;9.18;;;4.85;;
49412;SDS011;35493;50.276;9.372;2023-03-08T12:30:38;10.35;;;5.20;;
49412;SDS011;35493;50.276;9.372;2023-03-08T12:33:23;10.38;;;4.60;;
49412;SDS011;35493;50.276;9.372;2023-03-08T12:36:01;9.70;;;4.78;;
49412;SDS011;35493;50.276;9.372;2023-03-08T12:38:44;8.63;;;4.70;;
49412;SDS011;35493;50.276;9.372;2023-03-08T12:41:21;9.85;;;4.95;;
49412;SDS011;35493;50.276;9.372;2023-03-08T12:44:00;6.82;;;4.35;;
49412;SDS011;35493;50.276;9.372;2023-03-08T12:46:46;8.57;;;4.25;;
49412;SDS011;35493;50.276;9.372;2023-03-08T12:49:24;8.25;;;4.57;;
49412;SDS011;35493;50.276;9.372;2023-03-08T12:52:04;9.13;;;4.80;;
49412;SDS011;35493;50.276;9.372;2023-03-08T12:54:54;9.68;;;4.90;;
49412;SDS011;35493;50.276;9.372;2023-03-08T12:57:31;12.00;;;5.63;;
49412;SDS011;35493;50.276;9.372;2023-03-08T13:00:22;11.52;;;5.18;;
49412;SDS011;35493;50.276;9.372;2023-03-08T13:03:00;13.32;;;5.70;;
49412;SDS011;35493;50.276;9.372;2023-03-08T13:05:36;11.57;;;5.22;;
49412;SDS011;35493;50.276;9.372;2023-03-08T13:08:20;11.82;;;6.30;;
49412;SDS011;35493;50.276;9.372;2023-03-08T13:11:05;11.88;;;6.10;;
49412;SDS011;35493;50.276;9.372;2023-03-08T13:13:46;10.38;;;5.47;;
49412;SDS011;35493;50.276;9.372;2023-03-08T13:16:31;9.18;;;5.07;;
49412;SDS011;35493;50.276;9.372;2023-03-08T13:19:12;8.10;;;4.72;;
49412;SDS011;35493;50.276;9.372;2023-03-08T13:21:52;8.10;;;3.70;;
49412;SDS011;35493;50.276;9.372;2023-03-08T13:24:39;6.10;;;3.70;;
49412;SDS011;35493;50.276;9.372;2023-03-08T13:27:20;7.63;;;3.90;;
49412;SDS011;35493;50.276;9.372;2023-03-08T13:30:14;7.22;;;3.80;;
49412;SDS011;35493;50.276;9.372;2023-03-08T13:32:52;6.22;;;3.55;;
49412;SDS011;35493;50.276;9.372;2023-03-08T13:35:26;6.85;;;3.75;;
49412;SDS011;35493;50.276;9.372;2023-03-08T13:38:00;6.22;;;3.47;;
49412;SDS011;35493;50.276;9.372;2023-03-08T13:40:48;5.70;;;2.88;;
49412;SDS011;35493;50.276;9.372;2023-03-08T13:43:24;6.65;;;3.42;;
49412;SDS011;35493;50.276;9.372;2023-03-08T13:45:58;5.45;;;2.40;;
49412;SDS011;35493;50.276;9.372;2023-03-08T13:48:34;3.92;;;1.92;;
49412;SDS011;35493;50.276;9.372;2023-03-08T13:51:08;3.85;;;1.80;;
49412;SDS011;35493;50.276;9.372;2023-03-08T13:53:49;3.60;;;1.70;;
49412;SDS011;35493;50.276;9.372;2023-03-08T13:56:25;3.72;;;1.55;;
49412;SDS011;35493;50.276;9.372;2023-03-08T13:59:00;3.17;;;1.60;;
49412;SDS011;35493;50.276;9.372;2023-03-08T14:01:33;3.15;;;1.67;;
49412;SDS011;35493;50.276;9.372;2023-03-08T14:04:09;4.50;;;2.10;;
49412;SDS011;35493;50.276;9.372;2023-03-08T14:06:47;6.18;;;3.30;;
49412;SDS011;35493;50.276;9.372;2023-03-08T14:09:22;5.45;;;3.13;;
49412;SDS011;35493;50.276;9.372;2023-03-08T14:11:58;6.03;;;2.97;;
49412;SDS011;35493;50.276;9.372;2023-03-08T14:14:35;5.28;;;3.00;;
49412;SDS011;35493;50.276;9.372;2023-03-08T14:17:14;5.53;;;2.80;;
49412;SDS011;35493;50.276;9.372;2023-03-08T14:19:53;6.60;;;3.60;;
49412;SDS011;35493;50.276;9.372;2023-03-08T14:22:27;6.63;;;3.08;;
49412;SDS011;35493;50.276;9.372;2023-03-08T14:25:02;6.78;;;3.25;;
49412;SDS011;35493;50.276;9.372;2023-03-08T14:27:38;6.15;;;3.58;;
49412;SDS011;35493;50.276;9.372;2023-03-08T14:30:14;5.78;;;3.13;;
49412;SDS011;35493;50.276;9.372;2023-03-08T14:33:00;6.45;;;3.10;;
49412;SDS011;35493;50.276;9.372;2023-03-08T14:35:38;5.70;;;3.33;;
49412;SDS011;35493;50.276;9.372;2023-03-08T14:38:21;6.90;;;3.33;;
49412;SDS011;35493;50.276;9.372;2023-03-08T14:40:56;7.07;;;2.97;;
49412;SDS011;35493;50.276;9.372;2023-03-08T14:43:32;5.75;;;2.85;;
49412;SDS011;35493;50.276;9.372;2023-03-08T14:46:06;6.82;;;2.97;;
49412;SDS011;35493;50.276;9.372;2023-03-08T14:48:40;6.10;;;2.97;;
49412;SDS011;35493;50.276;9.372;2023-03-08T14:51:24;6.18;;;3.40;;
49412;SDS011;35493;50.276;9.372;2023-03-08T14:54:00;6.65;;;3.00;;
49412;SDS011;35493;50.276;9.372;2023-03-08T14:56:36;6.40;;;3.38;;
49412;SDS011;35493;50.276;9.372;2023-03-08T14:59:10;6.57;;;3.00;;
49412;SDS011;35493;50.276;9.372;2023-03-08T15:01:44;6.47;;;3.22;;
49412;SDS011;35493;50.276;9.372;2023-03-08T15:04:18;6.10;;;2.50;;
49412;SDS011;35493;50.276;9.372;2023-03-08T15:06:53;5.85;;;2.40;;
49412;SDS011;35493;50.276;9.372;2023-03-08T15:09:27;5.28;;;2.60;;
49412;SDS011;35493;50.276;9.372;2023-03-08T15:12:02;4.95;;;2.50;;
49412;SDS011;35493;50.276;9.372;2023-03-08T15:14:39;4.75;;;2.47;;
49412;SDS011;35493;50.276;9.372;2023-03-08T15:17:13;5.68;;;2.92;;
49412;SDS011;35493;50.276;9.372;2023-03-08T15:19:46;7.93;;;5.18;;
49412;SDS011;35493;50.276;9.372;2023-03-08T15:22:19;9.40;;;5.75;;
49412;SDS011;35493;50.276;9.372;2023-03-08T15:25:00;9.32;;;5.20;;
49412;SDS011;35493;50.276;9.372;2023-03-08T15:27:35;8.13;;;5.00;;
49412;SDS011;35493;50.276;9.372;2023-03-08T15:32:49;7.45;;;3.70;;
49412;SDS011;35493;50.276;9.372;2023-03-08T15:35:23;7.00;;;3.63;;
49412;SDS011;35493;50.276;9.372;2023-03-08T15:37:57;5.97;;;3.35;;
49412;SDS011;35493;50.276;9.372;2023-03-08T15:40:32;6.22;;;3.15;;
49412;SDS011;35493;50.276;9.372;2023-03-08T15:43:13;5.18;;;3.03;;
49412;SDS011;35493;50.276;9.372;2023-03-08T15:45:47;5.15;;;2.60;;